createdAt,value
2022-11-26T00:01:42.450Z,8.47
2022-11-26T00:04:09.439Z,14.27
2022-11-26T00:06:43.941Z,15.33
2022-11-26T00:09:15.788Z,11.87
2022-11-26T00:11:42.071Z,7.93
2022-11-26T00:14:16.657Z,11.63
2022-11-26T00:16:44.274Z,9.80
2022-11-26T00:19:10.537Z,13.87
2022-11-26T00:21:40.275Z,7.40
2022-11-26T00:24:27.020Z,8.43
2022-11-26T00:26:57.860Z,13.73
2022-11-26T00:29:24.113Z,12.93
2022-11-26T00:31:50.309Z,12.17
2022-11-26T00:34:16.761Z,10.97
2022-11-26T00:36:43.742Z,11.13
2022-11-26T00:39:17.040Z,15.07
2022-11-26T00:41:49.793Z,11.40
2022-11-26T00:44:23.462Z,17.53
2022-11-26T00:46:50.757Z,14.13
2022-11-26T00:49:17.764Z,14.10
2022-11-26T00:51:46.216Z,16.97
2022-11-26T00:54:16.858Z,17.63
2022-11-26T00:56:43.636Z,14.33
2022-11-26T00:59:14.728Z,22.73
2022-11-26T01:01:41.324Z,17.73
2022-11-26T01:04:07.885Z,22.10
2022-11-26T01:06:39.034Z,17.53
2022-11-26T01:09:07.394Z,14.47
2022-11-26T01:11:33.683Z,15.53
2022-11-26T01:13:59.860Z,27.77
2022-11-26T01:16:29.589Z,26.43
2022-11-26T01:18:58.641Z,19.23
2022-11-26T01:21:27.843Z,18.20
2022-11-26T01:23:54.151Z,22.80
2022-11-26T01:26:26.736Z,16.07
2022-11-26T01:28:54.734Z,21.47
2022-11-26T01:31:24.823Z,21.03
2022-11-26T01:33:51.480Z,18.10
2022-11-26T01:36:34.273Z,15.57
2022-11-26T01:39:06.764Z,13.83
2022-11-26T01:42:06.026Z,15.97
2022-11-26T01:44:35.549Z,16.40
2022-11-26T01:47:20.487Z,18.30
2022-11-26T01:50:27.055Z,20.47
2022-11-26T01:53:10.463Z,20.80
2022-11-26T01:55:45.724Z,19.17
2022-11-26T01:58:19.102Z,18.93
2022-11-26T02:00:48.473Z,21.10
2022-11-26T02:03:15.568Z,19.70
2022-11-26T02:05:53.715Z,15.57
2022-11-26T02:08:20.265Z,20.40
2022-11-26T02:10:46.559Z,15.93
2022-11-26T02:13:12.938Z,16.83
2022-11-26T02:16:06.933Z,15.53
2022-11-26T02:18:43.907Z,17.83
2022-11-26T02:21:24.255Z,21.57
2022-11-26T02:24:31.192Z,19.87
2022-11-26T02:27:34.964Z,20.23
2022-11-26T02:30:06.340Z,16.67
2022-11-26T02:32:58.133Z,16.87
2022-11-26T02:35:46.624Z,18.40
2022-11-26T02:38:32.223Z,19.53
2022-11-26T02:40:58.429Z,22.20
2022-11-26T02:43:26.831Z,21.23
2022-11-26T02:46:01.071Z,23.03
2022-11-26T02:48:35.319Z,30.10
2022-11-26T02:51:12.116Z,27.10
2022-11-26T02:53:39.795Z,23.60
2022-11-26T02:56:16.406Z,21.43
2022-11-26T02:58:44.110Z,15.33
2022-11-26T03:01:21.735Z,21.27
2022-11-26T03:03:52.278Z,16.93
2022-11-26T03:06:19.926Z,15.43
2022-11-26T03:08:46.229Z,19.50
2022-11-26T03:11:12.792Z,24.07
2022-11-26T03:13:38.960Z,23.97
2022-11-26T03:16:05.243Z,19.47
2022-11-26T03:18:31.450Z,15.13
2022-11-26T03:20:57.622Z,17.10
2022-11-26T03:23:23.755Z,18.53
2022-11-26T03:25:49.901Z,22.33
2022-11-26T03:28:16.127Z,14.90
2022-11-26T03:30:42.525Z,16.73
2022-11-26T03:33:08.668Z,17.07
2022-11-26T03:35:34.814Z,17.43
2022-11-26T03:38:00.967Z,19.80
2022-11-26T03:40:27.336Z,22.43
2022-11-26T03:42:53.507Z,22.47
2022-11-26T03:45:19.696Z,19.83
2022-11-26T03:47:45.821Z,23.57
2022-11-26T03:50:12.136Z,16.70
2022-11-26T03:52:38.279Z,23.07
2022-11-26T03:55:04.846Z,18.87
2022-11-26T03:57:31.006Z,21.17
2022-11-26T03:59:57.387Z,27.23
2022-11-26T04:02:23.559Z,17.93
2022-11-26T04:04:49.819Z,18.13
2022-11-26T04:07:16.067Z,17.63
2022-11-26T04:09:42.346Z,17.23
2022-11-26T04:12:08.791Z,16.43
2022-11-26T04:14:34.956Z,21.50
2022-11-26T04:17:01.144Z,13.37
2022-11-26T04:19:27.389Z,19.63
2022-11-26T04:21:53.555Z,18.73
2022-11-26T04:24:19.676Z,14.23
2022-11-26T04:26:46.592Z,17.20
2022-11-26T04:29:12.794Z,19.60
2022-11-26T04:31:39.035Z,17.40
2022-11-26T04:34:05.289Z,10.60
2022-11-26T04:36:32.059Z,10.30
2022-11-26T04:38:58.322Z,16.17
2022-11-26T04:41:25.101Z,17.67
2022-11-26T04:43:51.966Z,15.60
2022-11-26T04:46:18.125Z,19.80
2022-11-26T04:48:44.393Z,18.30
2022-11-26T04:51:10.526Z,18.57
2022-11-26T04:53:36.674Z,21.47
2022-11-26T04:56:02.934Z,15.00
2022-11-26T04:58:29.073Z,21.80
2022-11-26T05:00:55.266Z,17.00
2022-11-26T05:03:21.543Z,16.00
2022-11-26T05:05:47.914Z,22.57
2022-11-26T05:08:14.304Z,15.90
2022-11-26T05:10:40.461Z,21.30
2022-11-26T05:13:06.659Z,23.17
2022-11-26T05:15:32.921Z,22.93
2022-11-26T05:17:59.059Z,25.67
2022-11-26T05:20:25.416Z,24.80
2022-11-26T05:22:51.541Z,25.57
2022-11-26T05:25:17.771Z,24.60
2022-11-26T05:27:43.910Z,19.57
2022-11-26T05:30:10.900Z,18.40
2022-11-26T05:32:37.112Z,31.10
2022-11-26T05:35:03.860Z,25.27
2022-11-26T05:37:30.113Z,23.13
2022-11-26T05:39:56.242Z,22.53
2022-11-26T05:42:22.429Z,22.20
2022-11-26T05:44:48.573Z,23.63
2022-11-26T05:47:14.744Z,20.93
2022-11-26T05:49:41.119Z,27.83
2022-11-26T05:52:07.282Z,24.13
2022-11-26T05:54:33.414Z,18.23
2022-11-26T05:57:00.463Z,16.43
2022-11-26T05:59:27.455Z,19.87
2022-11-26T06:01:53.628Z,20.23
2022-11-26T06:04:19.803Z,15.03
2022-11-26T06:06:46.004Z,19.27
2022-11-26T06:09:13.218Z,21.50
2022-11-26T06:11:39.508Z,22.73
2022-11-26T06:14:05.798Z,21.07
2022-11-26T06:16:32.014Z,14.83
2022-11-26T06:18:58.427Z,20.47
2022-11-26T06:21:24.686Z,21.27
2022-11-26T06:23:57.665Z,13.90
2022-11-26T06:26:25.534Z,17.60
2022-11-26T06:28:51.727Z,19.93
2022-11-26T06:31:17.879Z,18.47
2022-11-26T06:33:44.022Z,16.20
2022-11-26T06:36:10.626Z,17.73
2022-11-26T06:38:36.788Z,15.27
2022-11-26T06:41:07.157Z,16.97
2022-11-26T06:43:33.733Z,12.60
2022-11-26T06:46:09.311Z,20.97
2022-11-26T06:48:38.571Z,11.50
2022-11-26T06:51:08.090Z,16.37
2022-11-26T06:53:34.319Z,13.23
2022-11-26T06:56:03.026Z,16.10
2022-11-26T06:58:30.776Z,13.83
2022-11-26T07:00:57.362Z,21.67
2022-11-26T07:03:28.103Z,22.13
2022-11-26T07:05:58.217Z,16.60
2022-11-26T07:08:24.368Z,14.90
2022-11-26T07:10:50.550Z,19.23
2022-11-26T07:13:16.686Z,22.93
2022-11-26T07:15:42.913Z,15.73
2022-11-26T07:18:09.145Z,18.50
2022-11-26T07:20:36.588Z,19.33
2022-11-26T07:23:03.880Z,14.43
2022-11-26T07:25:30.830Z,13.17
2022-11-26T07:27:57.925Z,14.47
2022-11-26T07:30:27.109Z,14.97
2022-11-26T07:32:53.263Z,13.13
2022-11-26T07:35:19.626Z,12.90
2022-11-26T07:37:45.958Z,21.60
2022-11-26T07:40:12.839Z,13.10
2022-11-26T07:42:39.177Z,13.53
2022-11-26T07:45:06.055Z,20.17
2022-11-26T07:47:32.505Z,17.67
2022-11-26T07:49:58.891Z,16.13
2022-11-26T07:52:25.051Z,16.37
2022-11-26T07:54:51.203Z,15.37
2022-11-26T07:57:17.617Z,13.03
2022-11-26T07:59:43.793Z,14.07
2022-11-26T08:02:17.305Z,13.20
2022-11-26T08:04:43.530Z,13.90
2022-11-26T08:07:09.745Z,12.90
2022-11-26T08:09:36.271Z,12.30
2022-11-26T08:12:02.749Z,15.03
2022-11-26T08:14:29.250Z,13.30
2022-11-26T08:16:56.473Z,15.03
2022-11-26T08:19:22.777Z,13.30
2022-11-26T08:21:49.033Z,13.97
2022-11-26T08:24:18.697Z,9.87
2022-11-26T08:26:45.143Z,10.70
2022-11-26T08:29:12.992Z,12.83
2022-11-26T08:31:45.651Z,11.90
2022-11-26T08:34:15.233Z,13.80
2022-11-26T08:36:42.425Z,16.17
2022-11-26T08:39:13.443Z,10.43
2022-11-26T08:41:39.780Z,11.97
2022-11-26T08:44:07.546Z,17.97
2022-11-26T08:46:37.079Z,14.30
2022-11-26T08:49:04.343Z,17.40
2022-11-26T08:51:30.607Z,11.83
2022-11-26T08:53:56.846Z,10.67
2022-11-26T08:56:24.103Z,12.03
2022-11-26T08:58:50.944Z,12.63
2022-11-26T09:01:24.113Z,8.83
2022-11-26T09:03:53.334Z,12.33
2022-11-26T09:06:22.169Z,8.60
2022-11-26T09:09:07.212Z,10.40
2022-11-26T09:11:37.958Z,7.77
2022-11-26T09:14:05.017Z,9.20
2022-11-26T09:16:32.287Z,10.07
2022-11-26T09:19:05.105Z,10.20
2022-11-26T09:21:33.906Z,10.77
2022-11-26T09:24:00.617Z,17.17
2022-11-26T09:26:28.972Z,11.93
2022-11-26T09:28:55.161Z,12.57
2022-11-26T09:31:21.372Z,18.13
2022-11-26T09:33:47.925Z,14.73
2022-11-26T09:36:16.112Z,8.13
2022-11-26T09:38:43.133Z,11.57
2022-11-26T09:41:46.662Z,9.40
2022-11-26T09:44:39.270Z,11.33
2022-11-26T09:47:16.910Z,13.47
2022-11-26T09:50:05.429Z,11.57
2022-11-26T09:52:47.530Z,9.60
2022-11-26T09:55:34.321Z,9.47
2022-11-26T09:58:27.522Z,8.40
2022-11-26T10:00:58.595Z,9.60
2022-11-26T10:03:32.847Z,8.97
2022-11-26T10:06:25.190Z,10.37
2022-11-26T10:09:30.397Z,6.40
2022-11-26T10:12:50.566Z,10.03
2022-11-26T10:15:49.875Z,10.33
2022-11-26T10:19:02.607Z,7.30
2022-11-26T10:24:37.761Z,7.97
2022-11-26T10:27:14.771Z,12.33
2022-11-26T10:29:47.244Z,7.70
2022-11-26T10:32:27.608Z,12.90
2022-11-26T10:34:58.247Z,8.47
2022-11-26T10:37:27.886Z,8.67
2022-11-26T10:40:15.844Z,10.43
2022-11-26T10:43:05.091Z,9.20
2022-11-26T10:45:43.375Z,6.93
2022-11-26T10:48:34.058Z,5.60
2022-11-26T10:51:15.906Z,7.57
2022-11-26T10:54:03.375Z,7.90
2022-11-26T10:56:46.573Z,9.03
2022-11-26T10:59:56.755Z,9.17
2022-11-26T11:02:36.526Z,7.77
2022-11-26T11:05:08.329Z,8.33
2022-11-26T11:07:37.420Z,6.63
2022-11-26T11:10:09.580Z,9.23
2022-11-26T11:12:52.846Z,9.70
2022-11-26T11:15:28.230Z,12.40
2022-11-26T11:18:18.748Z,11.77
2022-11-26T11:20:57.677Z,10.10
2022-11-26T11:23:45.653Z,10.30
2022-11-26T11:26:20.560Z,11.30
2022-11-26T11:28:51.285Z,7.00
2022-11-26T11:31:24.527Z,10.77
2022-11-26T11:34:10.203Z,8.83
2022-11-26T11:36:36.425Z,7.97
2022-11-26T11:39:04.236Z,10.30
2022-11-26T11:41:44.640Z,11.80
2022-11-26T11:44:38.680Z,10.17
2022-11-26T11:47:33.277Z,8.37
2022-11-26T11:50:29.118Z,8.80
2022-11-26T11:53:07.891Z,9.90
2022-11-26T11:56:21.593Z,9.57
2022-11-26T11:59:35.344Z,11.93
2022-11-26T12:02:52.879Z,13.07
2022-11-26T12:05:58.942Z,11.23
2022-11-26T12:09:16.847Z,9.60
2022-11-26T12:12:19.066Z,11.17
2022-11-26T12:15:02.471Z,10.77
2022-11-26T12:17:50.835Z,10.50
2022-11-26T12:20:31.080Z,10.13
2022-11-26T12:23:24.332Z,10.37
2022-11-26T12:26:08.930Z,11.00
2022-11-26T12:29:07.016Z,13.17
2022-11-26T12:31:33.143Z,10.73
2022-11-26T12:34:31.442Z,8.43
2022-11-26T12:37:18.193Z,7.53
2022-11-26T12:40:24.218Z,7.63
2022-11-26T12:43:37.437Z,7.83
2022-11-26T12:46:33.961Z,6.77
2022-11-26T12:49:17.491Z,8.87
2022-11-26T12:52:12.775Z,8.80
2022-11-26T12:54:52.866Z,6.90
2022-11-26T12:57:25.483Z,7.30
2022-11-26T13:00:06.054Z,7.50
2022-11-26T13:02:41.746Z,11.03
2022-11-26T13:05:19.159Z,14.60
2022-11-26T13:08:07.406Z,10.70
2022-11-26T13:11:12.636Z,10.50
2022-11-26T13:14:01.694Z,9.10
2022-11-26T13:16:43.066Z,8.73
2022-11-26T13:19:35.317Z,8.43
2022-11-26T13:22:55.362Z,11.83
2022-11-26T13:25:52.448Z,11.73
2022-11-26T13:28:53.948Z,9.70
2022-11-26T13:31:40.810Z,11.07
2022-11-26T13:34:57.683Z,8.80
2022-11-26T13:37:46.392Z,8.50
2022-11-26T13:40:40.994Z,9.40
2022-11-26T13:43:25.114Z,10.93
2022-11-26T13:46:09.073Z,10.43
2022-11-26T13:48:51.466Z,11.30
2022-11-26T13:51:48.297Z,9.27
2022-11-26T13:54:41.907Z,9.30
2022-11-26T13:57:16.324Z,11.53
2022-11-26T13:59:52.771Z,8.33
2022-11-26T14:02:37.324Z,8.27
2022-11-26T14:05:09.358Z,7.53
2022-11-26T14:07:36.222Z,9.73
2022-11-26T14:10:28.186Z,14.23
2022-11-26T14:13:03.164Z,13.07
2022-11-26T14:15:41.506Z,10.50
2022-11-26T14:18:13.907Z,14.97
2022-11-26T14:21:00.815Z,11.80
2022-11-26T14:23:54.204Z,8.17
2022-11-26T14:26:37.211Z,13.63
2022-11-26T14:29:06.480Z,9.80
2022-11-26T14:31:34.521Z,12.53
2022-11-26T14:34:33.172Z,12.40
2022-11-26T14:37:01.252Z,12.53
2022-11-26T14:39:28.765Z,9.80
2022-11-26T14:42:05.236Z,17.37
2022-11-26T14:44:32.960Z,15.47
2022-11-26T14:47:10.966Z,13.13
2022-11-26T14:49:47.791Z,16.13
2022-11-26T14:52:25.840Z,12.20
2022-11-26T14:54:57.468Z,13.03
2022-11-26T14:57:37.952Z,9.73
2022-11-26T15:00:27.150Z,18.80
2022-11-26T15:02:53.969Z,14.43
2022-11-26T15:05:25.802Z,12.07
2022-11-26T15:08:17.008Z,8.97
2022-11-26T15:10:53.777Z,15.33
2022-11-26T15:13:37.402Z,15.27
2022-11-26T15:16:23.957Z,12.53
2022-11-26T15:18:53.165Z,6.83
2022-11-26T15:21:25.042Z,11.10
2022-11-26T15:23:54.399Z,10.10
2022-11-26T15:26:25.154Z,8.03
2022-11-26T15:28:51.399Z,8.57
2022-11-26T15:31:17.713Z,7.47
2022-11-26T15:33:44.800Z,8.57
2022-11-26T15:36:17.163Z,11.73
2022-11-26T15:39:06.611Z,10.80
2022-11-26T15:41:42.416Z,8.60
2022-11-26T15:44:42.830Z,6.20
2022-11-26T15:47:19.456Z,6.10
2022-11-26T15:49:52.019Z,11.47
2022-11-26T15:52:25.247Z,9.73
2022-11-26T15:55:14.370Z,5.83
2022-11-26T15:57:41.970Z,9.30
2022-11-26T16:00:31.767Z,8.10
2022-11-26T16:02:58.179Z,10.27
2022-11-26T16:05:35.067Z,6.83
2022-11-26T16:08:31.611Z,8.50
2022-11-26T16:11:08.035Z,5.70
2022-11-26T16:13:35.392Z,5.63
2022-11-26T16:16:31.064Z,5.53
2022-11-26T16:18:59.338Z,6.10
2022-11-26T16:21:30.960Z,6.03
2022-11-26T16:24:02.061Z,6.13
2022-11-26T16:26:29.364Z,9.23
2022-11-26T16:28:55.741Z,6.80
2022-11-26T16:31:22.539Z,11.57
2022-11-26T16:33:48.777Z,23.70
2022-11-26T16:36:21.688Z,19.17
2022-11-26T16:38:48.846Z,23.30
2022-11-26T16:41:18.464Z,17.60
2022-11-26T16:43:44.754Z,30.27
2022-11-26T16:46:22.806Z,25.90
2022-11-26T16:48:50.398Z,18.93
2022-11-26T16:51:18.912Z,20.30
2022-11-26T16:53:45.188Z,15.57
2022-11-26T16:56:27.017Z,17.20
2022-11-26T16:58:56.836Z,11.90
2022-11-26T17:01:23.013Z,15.60
2022-11-26T17:03:49.255Z,14.33
2022-11-26T17:06:20.265Z,11.00
2022-11-26T17:08:49.842Z,21.00
2022-11-26T17:11:16.969Z,17.43
2022-11-26T17:13:43.147Z,14.70
2022-11-26T17:16:20.168Z,10.00
2022-11-26T17:18:47.692Z,9.47
2022-11-26T17:21:14.233Z,25.10
2022-11-26T17:23:40.600Z,20.83
2022-11-26T17:26:23.245Z,11.70
2022-11-26T17:28:50.194Z,11.50
2022-11-26T17:31:17.258Z,59.63
2022-11-26T17:33:43.637Z,29.90
2022-11-26T17:36:17.755Z,19.67
2022-11-26T17:38:44.503Z,19.33
2022-11-26T17:41:11.258Z,12.50
2022-11-26T17:43:37.913Z,13.67
2022-11-26T17:46:04.529Z,12.10
2022-11-26T17:48:30.813Z,22.17
2022-11-26T17:50:57.209Z,16.13
2022-11-26T17:53:23.350Z,13.57
2022-11-26T17:55:49.505Z,13.07
2022-11-26T17:58:15.677Z,15.00
2022-11-26T18:00:41.811Z,17.23
2022-11-26T18:03:08.439Z,19.77
2022-11-26T18:05:37.880Z,14.87
2022-11-26T18:08:06.765Z,13.10
2022-11-26T18:10:32.987Z,24.17
2022-11-26T18:12:59.141Z,19.80
2022-11-26T18:15:27.713Z,15.73
2022-11-26T18:17:54.993Z,17.10
2022-11-26T18:20:25.519Z,11.03
2022-11-26T18:22:56.186Z,30.20
2022-11-26T18:25:23.124Z,28.47
2022-11-26T18:27:49.546Z,18.57
2022-11-26T18:30:17.402Z,45.07
2022-11-26T18:32:43.682Z,25.13
2022-11-26T18:35:10.276Z,19.73
2022-11-26T18:37:39.139Z,25.23
2022-11-26T18:40:14.614Z,20.57
2022-11-26T18:42:40.955Z,28.43
2022-11-26T18:45:10.979Z,18.47
2022-11-26T18:47:37.550Z,17.67
2022-11-26T18:50:04.954Z,17.50
2022-11-26T18:52:31.196Z,20.27
2022-11-26T18:54:57.509Z,13.47
2022-11-26T18:57:23.651Z,22.27
2022-11-26T18:59:50.721Z,28.60
2022-11-26T19:02:17.044Z,37.20
2022-11-26T19:04:43.210Z,54.27
2022-11-26T19:07:13.062Z,55.80
2022-11-26T19:09:39.672Z,26.30
2022-11-26T19:12:06.311Z,21.67
2022-11-26T19:14:32.468Z,21.13
2022-11-26T19:16:58.663Z,18.10
2022-11-26T19:19:28.772Z,22.67
2022-11-26T19:22:00.746Z,25.73
2022-11-26T19:24:28.332Z,26.27
2022-11-26T19:26:54.491Z,29.67
2022-11-26T19:29:20.703Z,29.27
2022-11-26T19:31:46.817Z,28.27
2022-11-26T19:34:14.654Z,35.43
2022-11-26T19:36:41.390Z,35.67
2022-11-26T19:39:08.201Z,27.60
2022-11-26T19:41:34.424Z,24.30
2022-11-26T19:44:03.228Z,23.40
2022-11-26T19:46:29.566Z,22.27
2022-11-26T19:48:55.950Z,17.80
2022-11-26T19:51:25.629Z,14.40
2022-11-26T19:53:55.141Z,15.77
2022-11-26T19:56:28.347Z,14.47
2022-11-26T19:58:57.830Z,13.47
2022-11-26T20:01:26.517Z,11.90
2022-11-26T20:03:52.792Z,13.30
2022-11-26T20:06:25.872Z,9.17
2022-11-26T20:08:53.102Z,9.23
2022-11-26T20:11:19.727Z,11.27
2022-11-26T20:13:47.892Z,8.23
2022-11-26T20:16:24.501Z,9.87
2022-11-26T20:18:51.053Z,7.90
2022-11-26T20:21:26.283Z,18.33
2022-11-26T20:23:56.235Z,8.10
2022-11-26T20:26:33.924Z,14.70
2022-11-26T20:29:03.628Z,12.47
2022-11-26T20:31:30.417Z,10.73
2022-11-26T20:33:57.022Z,10.83
2022-11-26T20:36:23.535Z,8.20
2022-11-26T20:38:55.791Z,13.57
2022-11-26T20:41:23.560Z,9.07
2022-11-26T20:43:54.887Z,13.37
2022-11-26T20:46:25.514Z,9.23
2022-11-26T20:48:52.147Z,11.00
2022-11-26T20:51:21.000Z,10.00
2022-11-26T20:53:49.319Z,14.47
2022-11-26T20:56:20.473Z,13.87
2022-11-26T20:58:48.387Z,9.90
2022-11-26T21:01:19.275Z,11.77
2022-11-26T21:03:46.457Z,14.80
2022-11-26T21:06:14.796Z,12.37
2022-11-26T21:08:41.977Z,13.13
2022-11-26T21:11:08.880Z,14.37
2022-11-26T21:13:38.304Z,20.50
2022-11-26T21:16:07.484Z,19.03
2022-11-26T21:18:33.713Z,16.63
2022-11-26T21:21:07.141Z,17.67
2022-11-26T21:23:35.880Z,22.30
2022-11-26T21:26:06.630Z,22.30
2022-11-26T21:28:33.184Z,23.27
2022-11-26T21:31:06.097Z,23.40
2022-11-26T21:33:32.485Z,24.13
2022-11-26T21:36:08.261Z,16.60
2022-11-26T21:38:34.988Z,16.70
2022-11-26T21:41:11.715Z,13.47
2022-11-26T21:43:43.160Z,13.30
2022-11-26T21:46:15.716Z,16.73
2022-11-26T21:48:42.174Z,10.10
2022-11-26T21:51:15.607Z,12.37
2022-11-26T21:53:42.284Z,10.33
2022-11-26T21:56:15.927Z,7.87
2022-11-26T21:58:42.144Z,16.60
2022-11-26T22:01:28.508Z,10.20
2022-11-26T22:03:58.982Z,10.93
2022-11-26T22:06:25.691Z,10.47
2022-11-26T22:08:52.632Z,7.07
2022-11-26T22:11:24.957Z,10.20
2022-11-26T22:13:52.698Z,5.80
2022-11-26T22:16:22.801Z,8.43
2022-11-26T22:18:50.099Z,8.63
2022-11-26T22:21:21.603Z,7.43
2022-11-26T22:23:49.329Z,6.23
2022-11-26T22:26:15.964Z,5.87
2022-11-26T22:28:42.148Z,5.77
2022-11-26T22:31:17.627Z,8.97
2022-11-26T22:33:44.464Z,8.53
2022-11-26T22:36:11.655Z,7.53
2022-11-26T22:38:39.483Z,5.93
2022-11-26T22:41:11.200Z,7.17
2022-11-26T22:43:37.994Z,8.83
2022-11-26T22:46:16.688Z,8.00
2022-11-26T22:48:47.419Z,6.77
2022-11-26T22:51:13.786Z,6.50
2022-11-26T22:53:39.975Z,5.93
2022-11-26T22:56:06.623Z,6.57
2022-11-26T22:58:34.540Z,6.00
2022-11-26T23:01:07.703Z,9.17
2022-11-26T23:03:36.688Z,6.77
2022-11-26T23:06:07.875Z,7.03
2022-11-26T23:08:35.699Z,6.73
2022-11-26T23:11:18.765Z,7.00
2022-11-26T23:13:47.227Z,7.50
2022-11-26T23:16:14.331Z,6.77
2022-11-26T23:18:40.938Z,7.50
2022-11-26T23:21:20.358Z,6.20
2022-11-26T23:23:47.263Z,8.17
2022-11-26T23:26:25.016Z,7.07
2022-11-26T23:28:55.096Z,6.97
2022-11-26T23:31:25.737Z,7.73
2022-11-26T23:33:52.861Z,7.97
2022-11-26T23:36:19.940Z,6.17
2022-11-26T23:38:46.697Z,8.23
2022-11-26T23:41:13.524Z,7.40
2022-11-26T23:43:40.860Z,6.30
2022-11-26T23:46:13.375Z,7.40
2022-11-26T23:48:40.434Z,8.83
2022-11-26T23:51:10.586Z,7.87
2022-11-26T23:53:39.450Z,8.87
2022-11-26T23:56:11.775Z,9.03
2022-11-26T23:58:37.961Z,10.73
